createdAt,value
2022-08-27T00:06:14.182Z,132.90
2022-08-27T00:13:16.182Z,132.88
2022-08-27T00:20:19.797Z,134.38
2022-08-27T00:27:21.566Z,131.38
2022-08-27T00:34:23.973Z,132.55
2022-08-27T00:41:25.675Z,134.25
2022-08-27T00:48:28.847Z,130.52
2022-08-27T00:55:39.488Z,130.63
2022-08-27T01:02:42.178Z,130.15
2022-08-27T01:09:43.898Z,129.23
2022-08-27T01:16:50.733Z,127.70
2022-08-27T01:24:09.764Z,127.47
2022-08-27T01:31:11.911Z,126.43
2022-08-27T01:38:30.001Z,128.63
2022-08-27T01:45:36.992Z,125.30
2022-08-27T01:52:38.849Z,128.30
2022-08-27T01:59:40.644Z,128.90
2022-08-27T02:06:42.379Z,126.05
2022-08-27T02:13:44.092Z,127.25
2022-08-27T02:20:46.362Z,127.97
2022-08-27T02:27:48.824Z,125.30
2022-08-27T02:34:50.643Z,128.63
2022-08-27T02:41:52.316Z,128.32
2022-08-27T02:48:54.001Z,126.65
2022-08-27T02:55:55.686Z,123.22
2022-08-27T03:02:57.682Z,127.32
2022-08-27T03:09:59.512Z,129.50
2022-08-27T03:17:21.824Z,122.38
2022-08-27T03:24:23.587Z,128.65
2022-08-27T03:31:29.306Z,128.38
2022-08-27T03:38:30.889Z,127.82
2022-08-27T03:45:32.537Z,128.10
2022-08-27T03:52:54.201Z,126.97
2022-08-27T03:59:57.022Z,126.80
2022-08-27T04:06:59.102Z,130.68
2022-08-27T04:14:02.784Z,132.18
2022-08-27T04:21:11.479Z,130.15
2022-08-27T04:28:13.384Z,130.97
2022-08-27T04:35:15.136Z,129.63
2022-08-27T04:42:18.288Z,123.50
2022-08-27T04:49:19.991Z,129.23
2022-08-27T04:56:22.687Z,133.50
2022-08-27T05:03:24.561Z,135.30
2022-08-27T05:10:26.268Z,125.53
2022-08-27T05:17:31.338Z,127.15
2022-08-27T05:24:33.035Z,125.60
2022-08-27T05:31:34.833Z,126.63
2022-08-27T05:38:36.787Z,128.63
2022-08-27T05:45:48.685Z,127.47
2022-08-27T05:52:50.793Z,129.70
2022-08-27T06:00:15.771Z,128.10
2022-08-27T06:07:17.716Z,129.93
2022-08-27T06:14:19.482Z,126.25
2022-08-27T06:21:24.664Z,128.55
2022-08-27T06:28:31.378Z,128.98
2022-08-27T06:35:36.162Z,127.45
2022-08-27T06:42:38.136Z,124.25
2022-08-27T06:49:43.900Z,118.40
2022-08-27T06:56:49.602Z,123.45
2022-08-27T07:03:51.552Z,121.75
2022-08-27T07:10:57.295Z,122.50
2022-08-27T07:17:59.070Z,119.78
2022-08-27T07:25:02.824Z,120.05
2022-08-27T07:32:04.803Z,118.68
2022-08-27T07:39:06.880Z,120.13
2022-08-27T07:46:08.847Z,113.38
2022-08-27T07:53:10.666Z,119.55
2022-08-27T08:00:13.123Z,119.90
2022-08-27T08:07:14.840Z,115.70
2022-08-27T08:14:17.110Z,117.82
2022-08-27T08:21:18.901Z,115.10
2022-08-27T08:28:20.620Z,117.13
2022-08-27T08:35:24.348Z,117.32
2022-08-27T08:42:32.035Z,116.15
2022-08-27T08:49:42.477Z,115.35
2022-08-27T08:57:08.291Z,116.07
2022-08-27T09:04:11.334Z,112.97
2022-08-27T09:11:35.191Z,113.32
2022-08-27T09:18:38.485Z,112.78
2022-08-27T09:25:42.862Z,111.45
2022-08-27T09:32:44.551Z,110.95
2022-08-27T09:39:49.302Z,108.80
2022-08-27T09:46:55.340Z,107.32
2022-08-27T09:53:57.611Z,105.50
2022-08-27T10:01:15.974Z,106.43
2022-08-27T10:08:25.269Z,100.20
2022-08-27T10:22:52.057Z,109.93
2022-08-27T10:30:07.524Z,99.85
2022-08-27T10:37:36.642Z,108.25
2022-08-27T10:44:55.825Z,96.90
2022-08-27T10:52:05.308Z,97.82
2022-08-27T10:59:32.217Z,99.35
2022-08-27T11:06:37.012Z,95.57
2022-08-27T11:13:42.631Z,99.88
2022-08-27T11:20:53.838Z,97.50
2022-08-27T11:27:55.562Z,100.20
2022-08-27T11:35:03.067Z,96.50
2022-08-27T11:42:39.011Z,97.75
2022-08-27T11:49:49.195Z,95.97
2022-08-27T11:56:52.101Z,94.68
2022-08-27T12:04:02.248Z,91.25
2022-08-27T12:11:08.412Z,87.57
2022-08-27T12:18:38.548Z,69.75
2022-08-27T12:25:40.212Z,64.20
2022-08-27T12:32:46.406Z,56.65
2022-08-27T12:39:49.476Z,62.63
2022-08-27T12:47:17.003Z,38.88
2022-08-27T12:54:36.847Z,28.17
2022-08-27T13:02:00.853Z,15.15
2022-08-27T13:09:06.875Z,15.98
2022-08-27T13:16:08.644Z,11.20
2022-08-27T13:23:20.490Z,9.93
2022-08-27T13:30:35.809Z,12.40
2022-08-27T13:37:46.039Z,11.00
2022-08-27T13:44:48.204Z,11.38
2022-08-27T13:51:50.793Z,10.30
2022-08-27T13:58:52.522Z,6.53
2022-08-27T14:05:54.392Z,6.53
2022-08-27T14:12:58.469Z,6.47
2022-08-27T14:20:01.050Z,6.07
2022-08-27T14:27:06.329Z,6.57
2022-08-27T14:34:08.393Z,6.55
2022-08-27T14:41:10.400Z,6.32
2022-08-27T14:48:18.685Z,7.10
2022-08-27T14:55:21.099Z,6.85
2022-08-27T15:02:23.639Z,6.68
2022-08-27T15:09:25.352Z,7.28
2022-08-27T15:16:35.071Z,8.05
2022-08-27T15:23:37.241Z,8.77
2022-08-27T15:30:38.978Z,8.23
2022-08-27T15:37:41.500Z,8.57
2022-08-27T15:44:48.649Z,9.32
2022-08-27T15:51:52.039Z,16.77
2022-08-27T15:58:53.991Z,10.35
2022-08-27T16:05:55.591Z,12.95
2022-08-27T16:12:57.269Z,14.18
2022-08-27T16:19:58.997Z,15.32
2022-08-27T16:27:00.775Z,11.50
2022-08-27T16:34:02.470Z,11.00
2022-08-27T16:41:05.023Z,11.85
2022-08-27T16:48:25.227Z,15.27
2022-08-27T16:55:26.875Z,15.43
2022-08-27T17:02:30.987Z,16.63
2022-08-27T17:09:34.817Z,17.13
2022-08-27T17:16:36.581Z,18.08
2022-08-27T17:23:39.979Z,21.42
2022-08-27T17:30:41.677Z,26.52
2022-08-27T17:37:43.352Z,31.17
2022-08-27T17:44:44.998Z,39.20
2022-08-27T17:51:48.342Z,43.72
2022-08-27T17:58:52.398Z,52.72
2022-08-27T18:05:54.391Z,52.45
2022-08-27T18:12:56.067Z,56.88
2022-08-27T18:19:57.693Z,64.25
2022-08-27T18:26:59.352Z,75.63
2022-08-27T18:34:01.206Z,78.40
2022-08-27T18:41:03.198Z,77.32
2022-08-27T18:48:11.502Z,77.05
2022-08-27T18:55:14.486Z,69.77
2022-08-27T19:02:17.939Z,72.63
2022-08-27T19:09:20.907Z,76.90
2022-08-27T19:16:29.443Z,72.70
2022-08-27T19:23:31.127Z,79.77
2022-08-27T19:30:32.836Z,86.57
2022-08-27T19:37:35.500Z,85.45
2022-08-27T19:44:37.239Z,92.35
2022-08-27T19:51:38.839Z,89.20
2022-08-27T19:58:43.245Z,88.93
2022-08-27T20:05:45.565Z,85.72
2022-08-27T20:12:47.232Z,89.50
2022-08-27T20:19:49.582Z,91.03
2022-08-27T20:26:52.046Z,93.82
2022-08-27T20:33:54.184Z,93.53
2022-08-27T20:40:55.844Z,100.57
2022-08-27T20:48:00.823Z,99.30
2022-08-27T20:55:06.494Z,104.32
2022-08-27T21:02:10.907Z,96.65
2022-08-27T21:09:12.672Z,97.40
2022-08-27T21:16:14.344Z,104.35
2022-08-27T21:23:16.063Z,100.35
2022-08-27T21:30:18.216Z,102.13
2022-08-27T21:37:20.152Z,98.03
2022-08-27T21:44:22.517Z,102.70
2022-08-27T21:51:24.797Z,101.38
2022-08-27T21:58:26.871Z,101.90
2022-08-27T22:05:28.624Z,104.22
2022-08-27T22:12:30.251Z,104.68
2022-08-27T22:19:31.845Z,106.85
2022-08-27T22:26:33.430Z,109.90
2022-08-27T22:33:35.057Z,121.75
2022-08-27T22:40:36.720Z,131.23
2022-08-27T22:47:38.662Z,153.82
2022-08-27T22:54:40.275Z,120.35
2022-08-27T23:01:41.895Z,132.20
2022-08-27T23:08:43.501Z,134.23
2022-08-27T23:15:45.165Z,145.05
2022-08-27T23:22:46.791Z,136.27
2022-08-27T23:29:48.987Z,147.13
2022-08-27T23:36:50.898Z,141.55
2022-08-27T23:43:53.865Z,152.20
2022-08-27T23:50:55.463Z,151.20
2022-08-27T23:58:00.784Z,155.23
